createdAt,value
2018-05-25T00:03:54.501Z,28.27
2018-05-25T00:09:49.516Z,27.07
2018-05-25T00:15:44.476Z,27
2018-05-25T00:21:39.489Z,26.14
2018-05-25T00:27:34.527Z,27.6
2018-05-25T00:33:29.505Z,26.12
2018-05-25T00:39:24.503Z,25.77
2018-05-25T00:45:19.513Z,25.16
2018-05-25T00:51:14.564Z,25.64
2018-05-25T00:57:09.535Z,25.18
2018-05-25T01:03:04.498Z,25.63
2018-05-25T01:08:59.513Z,25.35
2018-05-25T01:14:54.544Z,27.11
2018-05-25T01:20:49.666Z,26.33
2018-05-25T01:26:44.529Z,26.83
2018-05-25T01:32:39.545Z,26.99
2018-05-25T01:38:34.569Z,26.33
2018-05-25T01:44:29.517Z,24.79
2018-05-25T01:50:24.523Z,25.79
2018-05-25T01:56:19.586Z,25.4
2018-05-25T02:02:14.594Z,25.71
2018-05-25T02:08:09.532Z,24.27
2018-05-25T02:14:04.561Z,25.17
2018-05-25T02:19:59.577Z,26.58
2018-05-25T02:25:54.578Z,24.47
2018-05-25T02:31:49.566Z,23.85
2018-05-25T02:37:44.547Z,23.53
2018-05-25T02:43:39.548Z,23.82
2018-05-25T02:49:34.578Z,24.27
2018-05-25T02:55:29.550Z,23.46
2018-05-25T03:01:24.598Z,25.23
2018-05-25T03:07:19.575Z,23.89
2018-05-25T03:13:14.605Z,22.8
2018-05-25T03:19:09.612Z,21.89
2018-05-25T03:25:04.594Z,23.17
2018-05-25T03:30:59.576Z,22.75
2018-05-25T03:36:54.586Z,22.59
2018-05-25T03:42:49.620Z,23.68
2018-05-25T03:48:44.600Z,23.4
2018-05-25T03:54:39.637Z,23.77
2018-05-25T04:00:34.648Z,22.38
2018-05-25T04:06:29.616Z,21.48
2018-05-25T04:12:24.629Z,21.49
2018-05-25T04:18:19.618Z,22.81
2018-05-25T04:24:14.611Z,22.6
2018-05-25T04:30:09.708Z,24.34
2018-05-25T04:36:04.630Z,22.31
2018-05-25T04:41:59.628Z,21.17
2018-05-25T04:47:54.677Z,20.61
2018-05-25T04:53:49.648Z,23.77
2018-05-25T04:59:44.642Z,23.91
2018-05-25T05:05:39.625Z,23.77
2018-05-25T05:11:34.659Z,23.65
2018-05-25T05:17:29.688Z,24.53
2018-05-25T05:23:24.647Z,19.84
2018-05-25T05:29:19.714Z,19.02
2018-05-25T05:35:14.639Z,18.06
2018-05-25T05:41:09.661Z,18.66
2018-05-25T05:47:04.739Z,17.37
2018-05-25T05:52:59.662Z,19.08
2018-05-25T05:58:54.740Z,16.68
2018-05-25T06:04:49.675Z,16.89
2018-05-25T06:10:44.674Z,18.3
2018-05-25T06:16:39.681Z,15.09
2018-05-25T06:22:34.740Z,18.83
2018-05-25T06:28:29.720Z,18.41
2018-05-25T06:34:24.779Z,21.91
2018-05-25T06:40:19.741Z,19.54
2018-05-25T06:46:14.683Z,19.65
2018-05-25T06:52:09.735Z,20.8
2018-05-25T06:58:04.745Z,18.6
2018-05-25T07:03:59.784Z,19.86
2018-05-25T07:09:54.723Z,20.26
2018-05-25T07:15:49.716Z,20.06
2018-05-25T07:21:44.709Z,20.26
2018-05-25T07:27:39.727Z,17.69
2018-05-25T07:33:34.731Z,20.66
2018-05-25T07:39:29.730Z,19.75
2018-05-25T07:45:24.770Z,20.38
2018-05-25T07:51:19.777Z,20.13
2018-05-25T07:57:14.721Z,20.47
2018-05-25T08:03:09.733Z,21.52
2018-05-25T08:09:04.768Z,18.85
2018-05-25T08:14:59.754Z,20.44
2018-05-25T08:20:54.755Z,19.8
2018-05-25T08:26:49.791Z,20.84
2018-05-25T08:32:44.735Z,20.19
2018-05-25T08:38:39.742Z,19.95
2018-05-25T08:44:34.756Z,20.7
2018-05-25T08:50:29.832Z,19.76
2018-05-25T08:56:24.840Z,19.97
2018-05-25T09:02:19.787Z,24.21
2018-05-25T09:08:14.797Z,22.55
2018-05-25T09:14:09.860Z,22.54
2018-05-25T09:20:04.779Z,24.34
2018-05-25T09:25:59.800Z,22.25
2018-05-25T09:31:54.849Z,24.52
2018-05-25T09:37:49.818Z,25.05
2018-05-25T09:43:44.795Z,23.79
2018-05-25T09:49:39.811Z,23.63
2018-05-25T09:55:34.813Z,24.23
2018-05-25T10:01:29.850Z,22.21
2018-05-25T10:07:24.830Z,22.66
2018-05-25T10:13:19.845Z,23.04
2018-05-25T10:19:14.856Z,22.78
2018-05-25T10:25:09.842Z,21.65
2018-05-25T10:31:04.805Z,23.81
2018-05-25T10:36:59.826Z,21.5
2018-05-25T10:42:54.855Z,23.44
2018-05-25T10:48:49.836Z,22.99
2018-05-25T10:54:44.859Z,22.83
2018-05-25T11:00:39.869Z,23.38
2018-05-25T11:06:34.835Z,23.12
2018-05-25T11:12:29.893Z,21.89
2018-05-25T11:18:24.832Z,21.49
2018-05-25T11:24:19.850Z,22.03
2018-05-25T11:30:14.846Z,26.8
2018-05-25T11:36:09.873Z,24.73
2018-05-25T11:42:04.879Z,25.09
2018-05-25T11:47:59.901Z,25.49
2018-05-25T11:53:54.885Z,25.23
2018-05-25T11:59:49.866Z,25.31
2018-05-25T12:05:44.910Z,22.24
2018-05-25T12:11:39.891Z,17.58
2018-05-25T12:17:34.917Z,18.42
2018-05-25T12:23:29.908Z,16.7
2018-05-25T12:29:24.915Z,13.61
2018-05-25T12:35:19.954Z,10.28
2018-05-25T12:41:14.900Z,9.7
2018-05-25T12:47:09.946Z,8.05
2018-05-25T12:53:04.955Z,7.07
2018-05-25T12:58:59.934Z,7.28
2018-05-25T13:04:54.894Z,8.1
2018-05-25T13:10:49.939Z,6.66
2018-05-25T13:16:44.935Z,5.66
2018-05-25T13:22:40.080Z,4.42
2018-05-25T13:28:34.940Z,3.65
2018-05-25T13:34:29.917Z,5.27
2018-05-25T13:40:25.009Z,5.57
2018-05-25T13:46:19.997Z,6.26
2018-05-25T13:52:14.941Z,5.81
2018-05-25T13:58:09.984Z,6.58
2018-05-25T14:04:04.936Z,7.12
2018-05-25T14:10:00.059Z,6.8
2018-05-25T14:15:54.952Z,6.44
2018-05-25T14:21:50.005Z,6.55
2018-05-25T14:27:44.959Z,6.76
2018-05-25T14:33:40.020Z,7.94
2018-05-25T14:39:34.971Z,8.04
2018-05-25T14:45:29.990Z,7.42
2018-05-25T14:51:24.991Z,6.75
2018-05-25T14:57:19.945Z,6.91
2018-05-25T15:03:14.974Z,11.89
2018-05-25T15:09:09.979Z,6.6
2018-05-25T15:15:05.006Z,7.53
2018-05-25T15:21:00.021Z,6.44
2018-05-25T15:26:55.023Z,7.87
2018-05-25T15:32:50.031Z,8.25
2018-05-25T15:38:45.009Z,7.86
2018-05-25T15:44:40.035Z,6.45
2018-05-25T15:50:35.041Z,8.77
2018-05-25T15:56:30.029Z,9.08
2018-05-25T16:02:25.086Z,8.25
2018-05-25T16:08:20.025Z,7.41
2018-05-25T16:14:15.077Z,8.09
2018-05-25T16:20:10.028Z,6.99
2018-05-25T16:26:05.027Z,6.93
2018-05-25T16:32:00.022Z,8.07
2018-05-25T16:37:55.046Z,6.73
2018-05-25T16:43:50.035Z,7.12
2018-05-25T16:49:45.072Z,7.07
2018-05-25T16:55:40.032Z,6.3
2018-05-25T17:01:35.065Z,7.07
2018-05-25T17:07:30.045Z,6.21
2018-05-25T17:13:25.150Z,6.35
2018-05-25T17:19:20.039Z,6.84
2018-05-25T17:25:15.103Z,7.24
2018-05-25T17:31:10.066Z,8.03
2018-05-25T17:37:05.075Z,8.83
2018-05-25T17:43:00.068Z,8.3
2018-05-25T17:48:55.142Z,8.52
2018-05-25T17:54:50.144Z,8.06
2018-05-25T18:00:45.125Z,8.1
2018-05-25T18:06:40.115Z,8.86
2018-05-25T18:12:35.100Z,8.01
2018-05-25T18:18:30.100Z,8.24
2018-05-25T18:24:25.118Z,9.02
2018-05-25T18:30:20.148Z,8.61
2018-05-25T18:36:15.184Z,8.82
2018-05-25T18:42:10.133Z,8.61
2018-05-25T18:48:05.118Z,8.35
2018-05-25T18:54:00.157Z,8.34
2018-05-25T18:59:55.107Z,8.86
2018-05-25T19:05:50.139Z,9.12
2018-05-25T19:11:45.171Z,9.4
2018-05-25T19:17:40.150Z,8.1
2018-05-25T19:23:35.139Z,8.62
2018-05-25T19:29:30.200Z,9.1
2018-05-25T19:35:25.130Z,9.4
2018-05-25T19:41:20.126Z,10.16
2018-05-25T19:47:15.145Z,9.84
2018-05-25T19:53:10.163Z,9.6
2018-05-25T19:59:05.178Z,9.3
2018-05-25T20:05:00.176Z,10.41
2018-05-25T20:10:55.144Z,9.41
2018-05-25T20:16:50.163Z,9.74
2018-05-25T20:22:45.148Z,9.17
2018-05-25T20:28:40.162Z,10.17
2018-05-25T20:34:35.170Z,9.58
2018-05-25T20:40:30.200Z,9.57
2018-05-25T20:46:25.178Z,10.2
2018-05-25T20:52:20.181Z,10
2018-05-25T20:58:15.217Z,11.12
2018-05-25T21:04:10.176Z,10.49
2018-05-25T21:10:05.194Z,12.42
2018-05-25T21:16:00.196Z,11.86
2018-05-25T21:21:55.229Z,11.66
2018-05-25T21:27:50.209Z,13.34
2018-05-25T21:33:45.200Z,13.79
2018-05-25T21:39:40.207Z,13.63
2018-05-25T21:45:35.216Z,13.77
2018-05-25T21:51:30.232Z,12.8
2018-05-25T21:57:25.231Z,13.52
2018-05-25T22:03:20.240Z,15.68
2018-05-25T22:09:15.242Z,13.91
2018-05-25T22:15:10.229Z,14.03
2018-05-25T22:21:05.248Z,14.29
2018-05-25T22:27:00.280Z,14.82
2018-05-25T22:32:55.254Z,15.14
2018-05-25T22:38:50.306Z,15.54
2018-05-25T22:44:45.281Z,16.18
2018-05-25T22:50:40.235Z,15.32
2018-05-25T22:56:35.270Z,17.21
2018-05-25T23:02:30.367Z,16.43
2018-05-25T23:08:25.283Z,16.92
2018-05-25T23:14:20.292Z,13.97
2018-05-25T23:20:15.275Z,13.34
2018-05-25T23:26:10.280Z,11.66
2018-05-25T23:32:05.382Z,10.9
2018-05-25T23:38:00.312Z,11.19
2018-05-25T23:43:55.278Z,11.11
2018-05-25T23:49:50.290Z,11.71
2018-05-25T23:55:45.305Z,10.48
